This is the latest recevied weather packets stored in our database for station/object KV4OP. If no packets are shown the sender has not sent any weather packets the latest 10 day(s).
| Time | Temp. | Humidity | Pressure | Rain* | Wind** | Luminosity | Snow |
|---|---|---|---|---|---|---|---|
| 1788637803 | 33.33° C | 73% | 1012.7 hPa | 0 mm | - | - | - |
| 1788637503 | 34.44° C | 71% | 1012.8 hPa | 0 mm | - | - | - |
| 1788637211 | 35° C | 70% | 1012.8 hPa | 0 mm | - | - | - |
| 1788636903 | 34.44° C | 70% | 1012.8 hPa | 0 mm | - | - | - |
| 1788636603 | 33.89° C | 70% | 1012.8 hPa | 0 mm | - | - | - |
| 1788636303 | 33.89° C | 70% | 1012.9 hPa | 0 mm | - | - | - |
| 1788636012 | 34.44° C | 72% | 1012.9 hPa | 0 mm | - | - | - |
| 1788635703 | 33.89° C | 72% | 1012.8 hPa | 0 mm | - | - | - |
| 1788635403 | 34.44° C | 69% | 1013 hPa | 0 mm | - | - | - |
| 1788635103 | 34.44° C | 69% | 1013 hPa | 0 mm | - | - | - |
| 1788634812 | 34.44° C | 70% | 1013.1 hPa | 0 mm | - | - | - |
| 1788634503 | 34.44° C | 71% | 1013.2 hPa | 0 mm | - | - | - |
| 1788634203 | 33.89° C | 71% | 1013.2 hPa | 0 mm | - | - | - |
| 1788633903 | 34.44° C | 71% | 1013.2 hPa | 0 mm | - | - | - |
| 1788633612 | 33.89° C | 74% | 1013.3 hPa | 0 mm | - | - | - |
| 1788633303 | 33.89° C | 73% | 1013.4 hPa | 0 mm | - | - | - |
| 1788633003 | 33.89° C | 72% | 1013.3 hPa | 0 mm | - | - | - |
| 1788632703 | 33.33° C | 73% | 1013.3 hPa | 0 mm | - | - | - |
| 1788632411 | 33.33° C | 73% | 1013.2 hPa | 0 mm | - | - | - |
| 1788632104 | 33.33° C | 72% | 1013.3 hPa | 0 mm | - | - | - |
| 1788631803 | 34.44° C | 70% | 1013.4 hPa | 0 mm | - | - | - |
| 1788631504 | 34.44° C | 71% | 1013.4 hPa | 0 mm | - | - | - |
| 1788631212 | 33.89° C | 74% | 1013.3 hPa | 0 mm | - | - | - |
| 1788630903 | 33.89° C | 73% | 1013.5 hPa | 0 mm | - | - | - |
| 1788630603 | 33.89° C | 73% | 1013.6 hPa | 0 mm | - | - | - |
* Rain latest hour (hover to see other rain measurements)
** Current wind speed in m/s (hover to see current wind gust speed)